sensor_id;sensor_type;location;lat;lon;timestamp;P1;P2;P0
50589;PMS7003;36547;50.514;30.840;2023-05-10T00:00:45;7.40;7.40;6.20
50589;PMS7003;36547;50.514;30.840;2023-05-10T00:01:47;7.30;7.30;6.00
50589;PMS7003;36547;50.514;30.840;2023-05-10T00:02:49;7.30;7.30;6.30
50589;PMS7003;36547;50.514;30.840;2023-05-10T00:03:52;9.10;7.70;6.70
50589;PMS7003;36547;50.514;30.840;2023-05-10T00:04:54;7.90;7.90;6.20
50589;PMS7003;36547;50.514;30.840;2023-05-10T00:05:57;6.30;6.30;5.50
50589;PMS7003;36547;50.514;30.840;2023-05-10T00:06:59;6.70;6.40;5.50
50589;PMS7003;36547;50.514;30.840;2023-05-10T00:08:01;7.80;7.20;6.00
50589;PMS7003;36547;50.514;30.840;2023-05-10T00:09:04;7.10;7.10;5.50
50589;PMS7003;36547;50.514;30.840;2023-05-10T00:10:07;7.80;7.80;5.50
50589;PMS7003;36547;50.514;30.840;2023-05-10T00:11:09;8.10;8.10;6.20
50589;PMS7003;36547;50.514;30.840;2023-05-10T00:12:11;10.00;9.50;6.60
50589;PMS7003;36547;50.514;30.840;2023-05-10T00:13:14;7.60;7.60;5.40
50589;PMS7003;36547;50.514;30.840;2023-05-10T00:14:16;8.30;8.30;6.30
50589;PMS7003;36547;50.514;30.840;2023-05-10T00:15:19;6.70;6.70;5.20
50589;PMS7003;36547;50.514;30.840;2023-05-10T00:16:22;7.36;6.91;6.00
50589;PMS7003;36547;50.514;30.840;2023-05-10T00:17:24;8.40;8.00;5.90
50589;PMS7003;36547;50.514;30.840;2023-05-10T00:18:26;8.70;6.70;5.50
50589;PMS7003;36547;50.514;30.840;2023-05-10T00:19:30;11.90;7.80;6.50
50589;PMS7003;36547;50.514;30.840;2023-05-10T00:20:32;9.40;8.60;6.60
50589;PMS7003;36547;50.514;30.840;2023-05-10T00:21:34;8.10;7.20;5.60
50589;PMS7003;36547;50.514;30.840;2023-05-10T00:22:37;8.60;7.80;6.20
50589;PMS7003;36547;50.514;30.840;2023-05-10T00:23:39;8.00;7.40;6.10
50589;PMS7003;36547;50.514;30.840;2023-05-10T00:24:42;6.40;6.40;5.60
50589;PMS7003;36547;50.514;30.840;2023-05-10T00:25:45;10.18;8.82;7.00
50589;PMS7003;36547;50.514;30.840;2023-05-10T00:26:48;9.00;8.60;6.20
50589;PMS7003;36547;50.514;30.840;2023-05-10T00:27:50;8.10;8.10;6.20
50589;PMS7003;36547;50.514;30.840;2023-05-10T00:28:53;11.10;8.30;5.90
50589;PMS7003;36547;50.514;30.840;2023-05-10T00:29:55;8.20;8.20;5.60
50589;PMS7003;36547;50.514;30.840;2023-05-10T00:30:57;6.90;6.70;5.50
50589;PMS7003;36547;50.514;30.840;2023-05-10T00:32:00;7.90;6.60;5.40
50589;PMS7003;36547;50.514;30.840;2023-05-10T00:33:02;6.70;5.90;4.70
50589;PMS7003;36547;50.514;30.840;2023-05-10T00:34:05;8.60;6.60;4.90
50589;PMS7003;36547;50.514;30.840;2023-05-10T00:35:07;9.40;7.80;6.40
50589;PMS7003;36547;50.514;30.840;2023-05-10T00:36:10;8.90;7.20;5.60
50589;PMS7003;36547;50.514;30.840;2023-05-10T00:37:13;9.30;7.90;5.80
50589;PMS7003;36547;50.514;30.840;2023-05-10T00:38:16;9.20;6.80;5.70
50589;PMS7003;36547;50.514;30.840;2023-05-10T00:39:18;8.10;7.90;5.90
50589;PMS7003;36547;50.514;30.840;2023-05-10T00:40:20;8.60;6.90;5.50
50589;PMS7003;36547;50.514;30.840;2023-05-10T00:41:24;6.20;6.20;5.40
50589;PMS7003;36547;50.514;30.840;2023-05-10T00:42:27;8.20;6.80;5.60
50589;PMS7003;36547;50.514;30.840;2023-05-10T00:43:29;5.70;5.30;4.40
50589;PMS7003;36547;50.514;30.840;2023-05-10T00:44:32;6.00;5.00;4.20
50589;PMS7003;36547;50.514;30.840;2023-05-10T00:45:34;6.60;5.90;4.50
50589;PMS7003;36547;50.514;30.840;2023-05-10T00:46:39;5.70;5.00;4.00
50589;PMS7003;36547;50.514;30.840;2023-05-10T00:47:41;6.00;5.50;4.50
50589;PMS7003;36547;50.514;30.840;2023-05-10T00:48:44;5.20;5.10;4.00
50589;PMS7003;36547;50.514;30.840;2023-05-10T00:49:46;6.60;6.60;4.90
50589;PMS7003;36547;50.514;30.840;2023-05-10T00:50:49;7.90;5.50;4.00
50589;PMS7003;36547;50.514;30.840;2023-05-10T00:51:51;5.00;5.00;4.00
50589;PMS7003;36547;50.514;30.840;2023-05-10T00:52:55;6.09;4.82;4.18
50589;PMS7003;36547;50.514;30.840;2023-05-10T00:53:57;5.40;5.40;4.20
50589;PMS7003;36547;50.514;30.840;2023-05-10T00:55:00;6.45;5.73;4.64
50589;PMS7003;36547;50.514;30.840;2023-05-10T00:56:03;5.60;4.80;4.40
50589;PMS7003;36547;50.514;30.840;2023-05-10T00:57:06;5.20;5.20;4.60
50589;PMS7003;36547;50.514;30.840;2023-05-10T00:58:08;4.50;4.50;4.00
50589;PMS7003;36547;50.514;30.840;2023-05-10T00:59:10;4.70;4.70;4.00
50589;PMS7003;36547;50.514;30.840;2023-05-10T01:00:13;5.10;4.90;4.20
50589;PMS7003;36547;50.514;30.840;2023-05-10T01:01:16;4.90;4.50;3.40
50589;PMS7003;36547;50.514;30.840;2023-05-10T01:02:20;5.90;5.90;4.60
50589;PMS7003;36547;50.514;30.840;2023-05-10T01:03:22;5.30;5.30;4.50
50589;PMS7003;36547;50.514;30.840;2023-05-10T01:04:25;5.80;5.00;4.70
50589;PMS7003;36547;50.514;30.840;2023-05-10T01:05:27;4.50;4.50;4.20
50589;PMS7003;36547;50.514;30.840;2023-05-10T01:06:29;5.60;5.30;4.80
50589;PMS7003;36547;50.514;30.840;2023-05-10T01:07:32;5.09;4.91;4.91
50589;PMS7003;36547;50.514;30.840;2023-05-10T01:08:35;5.50;4.70;4.10
50589;PMS7003;36547;50.514;30.840;2023-05-10T01:09:38;7.40;6.00;5.10
50589;PMS7003;36547;50.514;30.840;2023-05-10T01:10:41;4.80;4.60;4.10
50589;PMS7003;36547;50.514;30.840;2023-05-10T01:11:44;5.10;5.10;3.80
50589;PMS7003;36547;50.514;30.840;2023-05-10T01:12:47;7.10;6.90;6.00
50589;PMS7003;36547;50.514;30.840;2023-05-10T01:13:52;6.80;6.00;4.70
50589;PMS7003;36547;50.514;30.840;2023-05-10T01:14:56;6.70;6.10;5.00
50589;PMS7003;36547;50.514;30.840;2023-05-10T01:15:59;7.00;7.00;5.45
50589;PMS7003;36547;50.514;30.840;2023-05-10T01:17:02;6.45;6.45;5.36
50589;PMS7003;36547;50.514;30.840;2023-05-10T01:18:06;5.80;5.70;5.20
50589;PMS7003;36547;50.514;30.840;2023-05-10T01:19:19;5.20;5.20;4.20
50589;PMS7003;36547;50.514;30.840;2023-05-10T01:20:23;6.80;6.80;5.40
50589;PMS7003;36547;50.514;30.840;2023-05-10T01:21:32;7.00;5.40;4.00
50589;PMS7003;36547;50.514;30.840;2023-05-10T01:34:23;5.20;4.60;4.00
50589;PMS7003;36547;50.514;30.840;2023-05-10T01:35:31;5.50;4.80;4.50
50589;PMS7003;36547;50.514;30.840;2023-05-10T01:36:40;7.00;6.00;5.00
50589;PMS7003;36547;50.514;30.840;2023-05-10T01:38:16;10.10;7.90;6.00
50589;PMS7003;36547;50.514;30.840;2023-05-10T01:39:45;4.20;4.20;3.60
50589;PMS7003;36547;50.514;30.840;2023-05-10T01:41:01;5.20;5.20;4.40
50589;PMS7003;36547;50.514;30.840;2023-05-10T01:42:29;6.00;6.00;5.00
50589;PMS7003;36547;50.514;30.840;2023-05-10T01:43:42;6.70;5.30;4.90
50589;PMS7003;36547;50.514;30.840;2023-05-10T01:47:38;7.20;6.70;5.10
50589;PMS7003;36547;50.514;30.840;2023-05-10T01:48:47;5.90;5.90;4.20
50589;PMS7003;36547;50.514;30.840;2023-05-10T01:49:53;6.80;6.10;5.00
50589;PMS7003;36547;50.514;30.840;2023-05-10T01:50:57;7.40;5.80;5.10
50589;PMS7003;36547;50.514;30.840;2023-05-10T01:52:06;6.30;5.70;4.70
50589;PMS7003;36547;50.514;30.840;2023-05-10T01:53:17;7.10;6.90;5.70
50589;PMS7003;36547;50.514;30.840;2023-05-10T01:54:21;5.80;5.80;4.50
50589;PMS7003;36547;50.514;30.840;2023-05-10T01:55:27;6.70;6.70;5.50
50589;PMS7003;36547;50.514;30.840;2023-05-10T01:56:35;7.00;6.60;5.60
50589;PMS7003;36547;50.514;30.840;2023-05-10T01:57:39;5.80;5.80;4.60
50589;PMS7003;36547;50.514;30.840;2023-05-10T01:58:45;5.90;5.90;4.90
50589;PMS7003;36547;50.514;30.840;2023-05-10T01:59:51;7.60;6.40;4.90
50589;PMS7003;36547;50.514;30.840;2023-05-10T02:00:55;5.20;5.20;4.50
50589;PMS7003;36547;50.514;30.840;2023-05-10T02:01:59;5.30;5.30;5.10
50589;PMS7003;36547;50.514;30.840;2023-05-10T02:03:05;7.00;5.40;4.50
50589;PMS7003;36547;50.514;30.840;2023-05-10T02:04:11;7.90;6.90;6.00
50589;PMS7003;36547;50.514;30.840;2023-05-10T02:05:17;7.10;7.10;5.10
50589;PMS7003;36547;50.514;30.840;2023-05-10T02:06:22;6.20;6.20;5.30
50589;PMS7003;36547;50.514;30.840;2023-05-10T02:07:26;6.00;6.00;5.00
50589;PMS7003;36547;50.514;30.840;2023-05-10T02:08:30;6.20;5.50;4.50
50589;PMS7003;36547;50.514;30.840;2023-05-10T02:09:34;6.60;5.40;4.60
50589;PMS7003;36547;50.514;30.840;2023-05-10T02:10:39;9.40;7.40;5.20
50589;PMS7003;36547;50.514;30.840;2023-05-10T02:11:44;8.10;5.90;5.40
50589;PMS7003;36547;50.514;30.840;2023-05-10T02:12:49;8.10;6.60;5.80
50589;PMS7003;36547;50.514;30.840;2023-05-10T02:13:54;6.50;5.50;4.60
50589;PMS7003;36547;50.514;30.840;2023-05-10T02:15:00;4.80;4.80;3.90
50589;PMS7003;36547;50.514;30.840;2023-05-10T02:16:06;6.00;5.50;4.80
50589;PMS7003;36547;50.514;30.840;2023-05-10T02:17:09;5.50;5.50;4.50
50589;PMS7003;36547;50.514;30.840;2023-05-10T02:18:13;6.60;5.80;4.70
50589;PMS7003;36547;50.514;30.840;2023-05-10T02:19:18;6.90;5.80;4.80
50589;PMS7003;36547;50.514;30.840;2023-05-10T02:20:22;6.00;6.00;4.80
50589;PMS7003;36547;50.514;30.840;2023-05-10T02:21:26;7.10;6.50;4.70
50589;PMS7003;36547;50.514;30.840;2023-05-10T02:22:31;6.60;6.60;5.70
50589;PMS7003;36547;50.514;30.840;2023-05-10T02:23:34;7.80;7.00;5.10
50589;PMS7003;36547;50.514;30.840;2023-05-10T02:24:39;6.30;5.30;4.80
50589;PMS7003;36547;50.514;30.840;2023-05-10T02:25:43;6.30;6.30;5.50
50589;PMS7003;36547;50.514;30.840;2023-05-10T02:26:46;6.36;6.36;5.09
50589;PMS7003;36547;50.514;30.840;2023-05-10T02:27:52;6.30;5.50;5.00
50589;PMS7003;36547;50.514;30.840;2023-05-10T02:28:56;7.80;6.20;5.00
50589;PMS7003;36547;50.514;30.840;2023-05-10T02:30:00;4.50;4.20;3.40
50589;PMS7003;36547;50.514;30.840;2023-05-10T02:31:03;6.30;5.40;4.50
50589;PMS7003;36547;50.514;30.840;2023-05-10T02:32:07;5.70;5.70;5.30
50589;PMS7003;36547;50.514;30.840;2023-05-10T02:33:12;5.10;5.10;4.50
50589;PMS7003;36547;50.514;30.840;2023-05-10T02:34:16;5.80;5.50;4.40
50589;PMS7003;36547;50.514;30.840;2023-05-10T02:35:20;6.70;6.10;5.00
50589;PMS7003;36547;50.514;30.840;2023-05-10T02:36:24;5.50;5.10;4.40
50589;PMS7003;36547;50.514;30.840;2023-05-10T02:37:28;6.00;4.80;4.40
50589;PMS7003;36547;50.514;30.840;2023-05-10T02:38:31;5.40;4.80;4.00
50589;PMS7003;36547;50.514;30.840;2023-05-10T02:39:36;6.60;5.60;4.40
50589;PMS7003;36547;50.514;30.840;2023-05-10T02:40:40;4.90;4.90;4.20
50589;PMS7003;36547;50.514;30.840;2023-05-10T02:41:44;4.70;4.70;3.90
50589;PMS7003;36547;50.514;30.840;2023-05-10T02:42:50;6.30;4.80;4.20
50589;PMS7003;36547;50.514;30.840;2023-05-10T02:43:57;5.60;5.10;4.30
50589;PMS7003;36547;50.514;30.840;2023-05-10T02:45:03;7.00;5.80;4.60
50589;PMS7003;36547;50.514;30.840;2023-05-10T02:46:14;7.00;6.10;5.10
50589;PMS7003;36547;50.514;30.840;2023-05-10T02:47:18;5.30;4.70;4.00
50589;PMS7003;36547;50.514;30.840;2023-05-10T02:48:20;6.27;5.55;4.82
50589;PMS7003;36547;50.514;30.840;2023-05-10T02:49:23;5.80;5.10;4.00
50589;PMS7003;36547;50.514;30.840;2023-05-10T02:50:28;4.70;4.70;4.00
50589;PMS7003;36547;50.514;30.840;2023-05-10T02:51:35;4.40;4.40;3.60
50589;PMS7003;36547;50.514;30.840;2023-05-10T02:52:40;5.90;5.90;4.90
50589;PMS7003;36547;50.514;30.840;2023-05-10T02:53:48;6.60;6.30;5.30
50589;PMS7003;36547;50.514;30.840;2023-05-10T02:54:55;6.90;5.70;4.40
50589;PMS7003;36547;50.514;30.840;2023-05-10T02:56:00;9.20;7.50;6.50
50589;PMS7003;36547;50.514;30.840;2023-05-10T02:57:05;6.70;5.20;4.70
50589;PMS7003;36547;50.514;30.840;2023-05-10T02:58:11;6.70;6.60;5.40
50589;PMS7003;36547;50.514;30.840;2023-05-10T02:59:14;6.50;6.50;5.30
50589;PMS7003;36547;50.514;30.840;2023-05-10T03:00:17;5.90;5.50;5.00
50589;PMS7003;36547;50.514;30.840;2023-05-10T03:01:20;4.70;4.70;4.20
50589;PMS7003;36547;50.514;30.840;2023-05-10T03:02:23;5.55;5.55;5.00
50589;PMS7003;36547;50.514;30.840;2023-05-10T03:03:27;5.60;5.60;4.70
50589;PMS7003;36547;50.514;30.840;2023-05-10T03:04:29;4.60;4.30;3.70
50589;PMS7003;36547;50.514;30.840;2023-05-10T03:05:32;5.90;5.20;4.00
50589;PMS7003;36547;50.514;30.840;2023-05-10T03:06:36;5.50;5.50;4.80
50589;PMS7003;36547;50.514;30.840;2023-05-10T03:07:39;6.20;5.50;4.10
50589;PMS7003;36547;50.514;30.840;2023-05-10T03:08:42;5.90;5.20;4.80
50589;PMS7003;36547;50.514;30.840;2023-05-10T03:09:47;6.50;6.00;5.50
50589;PMS7003;36547;50.514;30.840;2023-05-10T03:16:19;6.00;4.60;4.30
50589;PMS7003;36547;50.514;30.840;2023-05-10T03:18:54;5.90;5.70;5.20
50589;PMS7003;36547;50.514;30.840;2023-05-10T03:20:03;6.00;5.40;4.30
50589;PMS7003;36547;50.514;30.840;2023-05-10T03:21:09;5.40;4.90;4.30
50589;PMS7003;36547;50.514;30.840;2023-05-10T03:22:16;6.60;5.00;4.40
50589;PMS7003;36547;50.514;30.840;2023-05-10T03:23:30;6.00;6.00;4.70
50589;PMS7003;36547;50.514;30.840;2023-05-10T03:24:34;5.20;4.90;4.50
50589;PMS7003;36547;50.514;30.840;2023-05-10T03:25:38;5.70;4.80;4.50
50589;PMS7003;36547;50.514;30.840;2023-05-10T03:26:43;6.10;4.70;4.00
50589;PMS7003;36547;50.514;30.840;2023-05-10T03:27:48;6.40;5.50;5.00
50589;PMS7003;36547;50.514;30.840;2023-05-10T03:28:53;5.20;5.00;4.00
50589;PMS7003;36547;50.514;30.840;2023-05-10T03:29:57;4.90;4.90;4.40
50589;PMS7003;36547;50.514;30.840;2023-05-10T03:31:00;5.55;5.00;4.27
50589;PMS7003;36547;50.514;30.840;2023-05-10T03:32:04;5.80;5.80;4.40
50589;PMS7003;36547;50.514;30.840;2023-05-10T03:33:07;6.40;6.40;5.70
50589;PMS7003;36547;50.514;30.840;2023-05-10T03:34:12;5.80;5.20;4.20
50589;PMS7003;36547;50.514;30.840;2023-05-10T03:35:14;5.90;5.70;5.30
50589;PMS7003;36547;50.514;30.840;2023-05-10T03:36:17;6.50;5.40;5.10
50589;PMS7003;36547;50.514;30.840;2023-05-10T03:37:21;6.70;6.10;5.10
50589;PMS7003;36547;50.514;30.840;2023-05-10T03:38:23;7.10;5.70;4.30
50589;PMS7003;36547;50.514;30.840;2023-05-10T03:39:26;7.50;6.50;5.00
50589;PMS7003;36547;50.514;30.840;2023-05-10T03:40:30;6.00;5.00;4.00
50589;PMS7003;36547;50.514;30.840;2023-05-10T03:41:32;4.50;4.50;4.20
50589;PMS7003;36547;50.514;30.840;2023-05-10T03:42:35;5.82;5.55;4.64
50589;PMS7003;36547;50.514;30.840;2023-05-10T03:43:37;5.20;5.00;3.90
50589;PMS7003;36547;50.514;30.840;2023-05-10T03:44:40;6.70;6.00;4.70
50589;PMS7003;36547;50.514;30.840;2023-05-10T03:45:43;6.20;5.70;4.80
50589;PMS7003;36547;50.514;30.840;2023-05-10T03:46:46;6.10;6.10;4.60
50589;PMS7003;36547;50.514;30.840;2023-05-10T03:47:48;6.50;6.00;5.20
50589;PMS7003;36547;50.514;30.840;2023-05-10T03:48:51;6.10;5.60;4.90
50589;PMS7003;36547;50.514;30.840;2023-05-10T03:49:53;6.30;5.00;4.30
50589;PMS7003;36547;50.514;30.840;2023-05-10T03:50:55;5.40;5.40;3.90
50589;PMS7003;36547;50.514;30.840;2023-05-10T03:51:58;7.20;6.30;4.70
50589;PMS7003;36547;50.514;30.840;2023-05-10T03:53:01;5.70;5.50;4.30
50589;PMS7003;36547;50.514;30.840;2023-05-10T03:54:03;6.90;6.40;5.20
50589;PMS7003;36547;50.514;30.840;2023-05-10T03:55:06;7.80;6.60;5.00
50589;PMS7003;36547;50.514;30.840;2023-05-10T03:56:09;5.80;5.80;4.70
50589;PMS7003;36547;50.514;30.840;2023-05-10T03:57:12;5.82;5.82;4.64
50589;PMS7003;36547;50.514;30.840;2023-05-10T03:58:15;6.60;6.20;5.20
50589;PMS7003;36547;50.514;30.840;2023-05-10T03:59:17;5.40;5.40;4.40
50589;PMS7003;36547;50.514;30.840;2023-05-10T04:00:20;5.80;5.50;4.20
50589;PMS7003;36547;50.514;30.840;2023-05-10T04:01:24;6.20;6.20;5.20
50589;PMS7003;36547;50.514;30.840;2023-05-10T04:02:27;6.09;5.36;4.00
50589;PMS7003;36547;50.514;30.840;2023-05-10T04:03:29;4.50;4.50;3.90
50589;PMS7003;36547;50.514;30.840;2023-05-10T04:04:32;6.00;6.00;5.00
50589;PMS7003;36547;50.514;30.840;2023-05-10T04:05:35;4.50;4.50;3.90
50589;PMS7003;36547;50.514;30.840;2023-05-10T04:06:39;6.70;5.50;4.80
50589;PMS7003;36547;50.514;30.840;2023-05-10T04:07:41;5.00;5.00;3.80
50589;PMS7003;36547;50.514;30.840;2023-05-10T04:08:43;6.10;5.20;4.50
50589;PMS7003;36547;50.514;30.840;2023-05-10T04:09:46;5.00;5.00;4.10
50589;PMS7003;36547;50.514;30.840;2023-05-10T04:10:48;5.36;5.18;4.64
50589;PMS7003;36547;50.514;30.840;2023-05-10T04:11:51;5.80;5.00;4.20
50589;PMS7003;36547;50.514;30.840;2023-05-10T04:12:53;7.30;6.30;4.90
50589;PMS7003;36547;50.514;30.840;2023-05-10T04:13:55;4.60;4.60;4.00
50589;PMS7003;36547;50.514;30.840;2023-05-10T04:14:58;5.20;5.20;3.90
50589;PMS7003;36547;50.514;30.840;2023-05-10T04:16:00;7.00;5.10;4.40
50589;PMS7003;36547;50.514;30.840;2023-05-10T04:17:02;6.30;6.30;5.50
50589;PMS7003;36547;50.514;30.840;2023-05-10T04:18:05;4.50;4.50;3.90
50589;PMS7003;36547;50.514;30.840;2023-05-10T04:19:09;5.30;4.80;4.30
50589;PMS7003;36547;50.514;30.840;2023-05-10T04:20:11;5.50;4.60;3.70
50589;PMS7003;36547;50.514;30.840;2023-05-10T04:21:14;6.09;5.45;4.36
50589;PMS7003;36547;50.514;30.840;2023-05-10T04:22:17;4.73;4.73;3.64
50589;PMS7003;36547;50.514;30.840;2023-05-10T04:23:21;6.70;5.70;5.00
50589;PMS7003;36547;50.514;30.840;2023-05-10T04:24:24;6.20;6.10;5.30
50589;PMS7003;36547;50.514;30.840;2023-05-10T04:25:27;5.10;5.10;4.50
50589;PMS7003;36547;50.514;30.840;2023-05-10T04:26:30;5.80;5.80;4.90
50589;PMS7003;36547;50.514;30.840;2023-05-10T04:27:32;5.70;5.70;4.70
50589;PMS7003;36547;50.514;30.840;2023-05-10T04:28:34;5.20;5.20;4.20
50589;PMS7003;36547;50.514;30.840;2023-05-10T04:29:37;6.20;5.30;4.80
50589;PMS7003;36547;50.514;30.840;2023-05-10T04:30:39;5.60;5.60;4.90
50589;PMS7003;36547;50.514;30.840;2023-05-10T04:31:41;6.10;5.40;4.20
50589;PMS7003;36547;50.514;30.840;2023-05-10T04:32:43;6.50;5.70;4.10
50589;PMS7003;36547;50.514;30.840;2023-05-10T04:33:46;5.40;5.40;4.20
50589;PMS7003;36547;50.514;30.840;2023-05-10T04:34:49;4.80;4.60;3.90
50589;PMS7003;36547;50.514;30.840;2023-05-10T04:35:52;4.70;4.70;4.40
50589;PMS7003;36547;50.514;30.840;2023-05-10T04:36:54;5.22;5.22;4.44
50589;PMS7003;36547;50.514;30.840;2023-05-10T04:37:56;4.50;4.50;3.90
50589;PMS7003;36547;50.514;30.840;2023-05-10T04:38:58;4.90;4.90;3.70
50589;PMS7003;36547;50.514;30.840;2023-05-10T04:40:01;6.90;5.40;4.50
50589;PMS7003;36547;50.514;30.840;2023-05-10T04:41:05;4.80;4.80;4.30
50589;PMS7003;36547;50.514;30.840;2023-05-10T04:42:09;6.40;5.00;4.40
50589;PMS7003;36547;50.514;30.840;2023-05-10T04:43:11;4.50;4.50;3.90
50589;PMS7003;36547;50.514;30.840;2023-05-10T04:44:14;5.30;5.00;4.10
50589;PMS7003;36547;50.514;30.840;2023-05-10T04:45:16;3.10;3.10;3.00
50589;PMS7003;36547;50.514;30.840;2023-05-10T04:46:18;4.40;4.40;3.40
50589;PMS7003;36547;50.514;30.840;2023-05-10T04:47:21;5.40;5.20;4.30
50589;PMS7003;36547;50.514;30.840;2023-05-10T04:48:23;4.90;4.90;4.00
50589;PMS7003;36547;50.514;30.840;2023-05-10T04:49:25;5.40;5.20;4.80
50589;PMS7003;36547;50.514;30.840;2023-05-10T04:50:28;4.70;4.70;4.20
50589;PMS7003;36547;50.514;30.840;2023-05-10T04:51:30;4.20;4.20;3.80
50589;PMS7003;36547;50.514;30.840;2023-05-10T04:52:32;5.90;5.00;4.40
50589;PMS7003;36547;50.514;30.840;2023-05-10T04:53:35;5.20;4.10;4.00
50589;PMS7003;36547;50.514;30.840;2023-05-10T04:54:37;7.00;4.60;3.70
50589;PMS7003;36547;50.514;30.840;2023-05-10T04:55:39;4.11;3.78;3.56
50589;PMS7003;36547;50.514;30.840;2023-05-10T04:56:41;6.30;5.10;4.50
50589;PMS7003;36547;50.514;30.840;2023-05-10T04:57:43;6.70;5.30;4.00
50589;PMS7003;36547;50.514;30.840;2023-05-10T04:58:46;4.40;4.40;4.30
50589;PMS7003;36547;50.514;30.840;2023-05-10T04:59:48;3.90;3.90;2.50
50589;PMS7003;36547;50.514;30.840;2023-05-10T05:00:52;5.30;5.10;4.40
50589;PMS7003;36547;50.514;30.840;2023-05-10T05:01:54;6.10;5.00;4.30
50589;PMS7003;36547;50.514;30.840;2023-05-10T05:02:58;5.90;4.10;3.80
50589;PMS7003;36547;50.514;30.840;2023-05-10T05:04:00;5.00;5.00;4.20
50589;PMS7003;36547;50.514;30.840;2023-05-10T05:05:03;6.50;6.10;4.10
50589;PMS7003;36547;50.514;30.840;2023-05-10T05:06:06;5.20;5.20;4.50
50589;PMS7003;36547;50.514;30.840;2023-05-10T05:07:08;4.30;4.30;3.60
50589;PMS7003;36547;50.514;30.840;2023-05-10T05:08:10;5.20;4.80;4.60
50589;PMS7003;36547;50.514;30.840;2023-05-10T05:09:13;4.80;4.40;3.40
50589;PMS7003;36547;50.514;30.840;2023-05-10T05:10:16;4.80;4.80;4.00
50589;PMS7003;36547;50.514;30.840;2023-05-10T05:11:19;5.36;4.27;3.64
50589;PMS7003;36547;50.514;30.840;2023-05-10T05:12:21;6.70;6.10;4.70
50589;PMS7003;36547;50.514;30.840;2023-05-10T05:13:23;5.90;5.20;4.70
50589;PMS7003;36547;50.514;30.840;2023-05-10T05:14:27;7.00;5.90;5.00
50589;PMS7003;36547;50.514;30.840;2023-05-10T05:15:29;5.90;5.90;5.00
50589;PMS7003;36547;50.514;30.840;2023-05-10T05:16:33;3.27;3.27;2.55
50589;PMS7003;36547;50.514;30.840;2023-05-10T05:17:35;4.70;4.70;3.60
50589;PMS7003;36547;50.514;30.840;2023-05-10T05:18:38;4.00;4.00;3.36
50589;PMS7003;36547;50.514;30.840;2023-05-10T05:19:40;5.60;5.60;4.60
50589;PMS7003;36547;50.514;30.840;2023-05-10T05:20:43;6.40;5.50;4.60
50589;PMS7003;36547;50.514;30.840;2023-05-10T05:21:46;5.10;4.90;4.60
50589;PMS7003;36547;50.514;30.840;2023-05-10T05:22:48;6.70;6.40;5.00
50589;PMS7003;36547;50.514;30.840;2023-05-10T05:23:50;5.10;5.10;4.40
50589;PMS7003;36547;50.514;30.840;2023-05-10T05:24:56;5.30;4.20;3.40
50589;PMS7003;36547;50.514;30.840;2023-05-10T05:25:59;5.90;5.00;4.30
50589;PMS7003;36547;50.514;30.840;2023-05-10T05:27:02;4.80;4.80;4.00
50589;PMS7003;36547;50.514;30.840;2023-05-10T05:28:04;7.20;4.90;4.20
50589;PMS7003;36547;50.514;30.840;2023-05-10T05:29:07;6.30;5.50;3.70
50589;PMS7003;36547;50.514;30.840;2023-05-10T05:30:10;6.90;5.60;4.80
50589;PMS7003;36547;50.514;30.840;2023-05-10T05:31:12;5.80;4.60;4.00
50589;PMS7003;36547;50.514;30.840;2023-05-10T05:32:17;5.20;5.00;4.40
50589;PMS7003;36547;50.514;30.840;2023-05-10T05:33:19;5.90;5.90;4.50
50589;PMS7003;36547;50.514;30.840;2023-05-10T05:34:21;5.10;5.10;4.00
50589;PMS7003;36547;50.514;30.840;2023-05-10T05:35:23;5.50;4.90;4.20
50589;PMS7003;36547;50.514;30.840;2023-05-10T05:36:26;5.20;5.20;4.00
50589;PMS7003;36547;50.514;30.840;2023-05-10T05:37:29;5.70;5.70;4.70
50589;PMS7003;36547;50.514;30.840;2023-05-10T05:38:31;5.00;4.00;3.90
50589;PMS7003;36547;50.514;30.840;2023-05-10T05:39:35;4.00;4.00;4.00
50589;PMS7003;36547;50.514;30.840;2023-05-10T05:40:38;5.70;4.90;4.50
50589;PMS7003;36547;50.514;30.840;2023-05-10T05:41:40;4.80;4.80;4.00
50589;PMS7003;36547;50.514;30.840;2023-05-10T05:42:42;6.50;6.00;5.00
50589;PMS7003;36547;50.514;30.840;2023-05-10T05:43:45;5.10;5.10;4.30
50589;PMS7003;36547;50.514;30.840;2023-05-10T05:44:47;5.50;5.50;4.60
50589;PMS7003;36547;50.514;30.840;2023-05-10T05:45:49;5.00;5.00;4.00
50589;PMS7003;36547;50.514;30.840;2023-05-10T05:46:51;4.90;4.40;4.10
50589;PMS7003;36547;50.514;30.840;2023-05-10T05:47:53;5.50;5.50;4.70
50589;PMS7003;36547;50.514;30.840;2023-05-10T05:48:59;4.80;4.50;3.50
50589;PMS7003;36547;50.514;30.840;2023-05-10T05:50:04;5.60;5.00;4.00
50589;PMS7003;36547;50.514;30.840;2023-05-10T05:51:09;5.30;5.30;4.30
50589;PMS7003;36547;50.514;30.840;2023-05-10T05:52:15;5.30;5.30;4.30
50589;PMS7003;36547;50.514;30.840;2023-05-10T05:53:21;4.70;4.70;4.60
50589;PMS7003;36547;50.514;30.840;2023-05-10T05:54:28;5.10;5.10;5.00
50589;PMS7003;36547;50.514;30.840;2023-05-10T05:55:33;4.80;4.80;3.30
50589;PMS7003;36547;50.514;30.840;2023-05-10T05:56:40;7.90;6.10;5.20
50589;PMS7003;36547;50.514;30.840;2023-05-10T05:57:48;4.70;4.70;4.70
50589;PMS7003;36547;50.514;30.840;2023-05-10T05:58:53;6.50;5.90;5.00
50589;PMS7003;36547;50.514;30.840;2023-05-10T05:59:56;5.90;5.00;4.60
50589;PMS7003;36547;50.514;30.840;2023-05-10T06:01:01;7.10;5.80;5.00
50589;PMS7003;36547;50.514;30.840;2023-05-10T06:02:05;5.70;5.00;4.30
50589;PMS7003;36547;50.514;30.840;2023-05-10T06:03:10;5.30;5.30;4.30
50589;PMS7003;36547;50.514;30.840;2023-05-10T06:04:14;6.60;5.40;5.00
50589;PMS7003;36547;50.514;30.840;2023-05-10T06:05:19;7.20;5.90;5.10
50589;PMS7003;36547;50.514;30.840;2023-05-10T06:06:26;5.30;5.30;4.30
50589;PMS7003;36547;50.514;30.840;2023-05-10T06:07:33;4.80;4.00;3.90
50589;PMS7003;36547;50.514;30.840;2023-05-10T06:08:39;5.10;5.10;4.50
50589;PMS7003;36547;50.514;30.840;2023-05-10T06:09:46;6.20;6.20;5.00
50589;PMS7003;36547;50.514;30.840;2023-05-10T06:10:49;7.10;6.40;5.60
50589;PMS7003;36547;50.514;30.840;2023-05-10T06:11:53;7.50;7.50;6.60
50589;PMS7003;36547;50.514;30.840;2023-05-10T06:12:57;7.50;6.30;5.20
50589;PMS7003;36547;50.514;30.840;2023-05-10T06:14:02;5.80;5.70;5.00
50589;PMS7003;36547;50.514;30.840;2023-05-10T06:15:06;6.30;5.60;5.20
50589;PMS7003;36547;50.514;30.840;2023-05-10T06:16:13;7.80;6.20;5.40
50589;PMS7003;36547;50.514;30.840;2023-05-10T06:17:22;6.60;6.60;5.50
50589;PMS7003;36547;50.514;30.840;2023-05-10T06:18:28;6.20;6.20;4.90
50589;PMS7003;36547;50.514;30.840;2023-05-10T06:19:53;5.70;5.20;4.70
50589;PMS7003;36547;50.514;30.840;2023-05-10T06:20:58;7.30;7.30;5.40
50589;PMS7003;36547;50.514;30.840;2023-05-10T06:22:12;6.60;6.60;5.70
50589;PMS7003;36547;50.514;30.840;2023-05-10T06:23:19;6.20;6.20;4.90
50589;PMS7003;36547;50.514;30.840;2023-05-10T06:24:26;4.80;4.80;3.80
50589;PMS7003;36547;50.514;30.840;2023-05-10T06:25:31;7.70;7.20;6.10
50589;PMS7003;36547;50.514;30.840;2023-05-10T06:26:36;7.40;6.70;5.50
50589;PMS7003;36547;50.514;30.840;2023-05-10T06:27:39;7.30;6.30;5.20
50589;PMS7003;36547;50.514;30.840;2023-05-10T06:28:42;7.90;7.10;5.40
50589;PMS7003;36547;50.514;30.840;2023-05-10T06:29:45;6.55;6.55;5.55
50589;PMS7003;36547;50.514;30.840;2023-05-10T06:30:49;5.27;5.27;5.00